sensor_id;sensor_type;location;lat;lon;timestamp;P1;durP1;ratioP1;P2;durP2;ratioP2
64609;SDS011;51019;46.090;6.350;2022-08-06T00:02:24;13.10;;;5.53;;
64609;SDS011;51019;46.090;6.350;2022-08-06T00:04:54;13.40;;;5.43;;
64609;SDS011;51019;46.090;6.350;2022-08-06T00:07:22;15.30;;;5.60;;
64609;SDS011;51019;46.090;6.350;2022-08-06T00:09:50;13.82;;;5.72;;
64609;SDS011;51019;46.090;6.350;2022-08-06T00:12:19;17.45;;;6.30;;
64609;SDS011;51019;46.090;6.350;2022-08-06T00:14:47;13.15;;;5.32;;
64609;SDS011;51019;46.090;6.350;2022-08-06T00:17:14;12.40;;;5.45;;
64609;SDS011;51019;46.090;6.350;2022-08-06T00:19:43;13.18;;;5.28;;
64609;SDS011;51019;46.090;6.350;2022-08-06T00:22:12;12.52;;;5.55;;
64609;SDS011;51019;46.090;6.350;2022-08-06T00:24:40;13.70;;;5.75;;
64609;SDS011;51019;46.090;6.350;2022-08-06T00:27:07;13.73;;;6.03;;
64609;SDS011;51019;46.090;6.350;2022-08-06T00:29:38;13.15;;;5.55;;
64609;SDS011;51019;46.090;6.350;2022-08-06T00:32:06;12.77;;;5.22;;
64609;SDS011;51019;46.090;6.350;2022-08-06T00:34:34;17.00;;;5.32;;
64609;SDS011;51019;46.090;6.350;2022-08-06T00:37:02;14.15;;;5.68;;
64609;SDS011;51019;46.090;6.350;2022-08-06T00:39:29;12.25;;;5.57;;
64609;SDS011;51019;46.090;6.350;2022-08-06T00:41:57;15.65;;;6.18;;
64609;SDS011;51019;46.090;6.350;2022-08-06T00:44:24;12.73;;;5.80;;
64609;SDS011;51019;46.090;6.350;2022-08-06T00:46:53;12.82;;;5.90;;
64609;SDS011;51019;46.090;6.350;2022-08-06T00:49:22;13.80;;;5.85;;
64609;SDS011;51019;46.090;6.350;2022-08-06T00:51:49;14.80;;;6.15;;
64609;SDS011;51019;46.090;6.350;2022-08-06T00:54:17;16.27;;;6.45;;
64609;SDS011;51019;46.090;6.350;2022-08-06T00:56:46;15.52;;;5.88;;
64609;SDS011;51019;46.090;6.350;2022-08-06T00:59:14;12.88;;;5.82;;
64609;SDS011;51019;46.090;6.350;2022-08-06T01:01:41;13.23;;;5.53;;
64609;SDS011;51019;46.090;6.350;2022-08-06T01:04:12;15.35;;;6.10;;
64609;SDS011;51019;46.090;6.350;2022-08-06T01:06:40;13.32;;;5.20;;
64609;SDS011;51019;46.090;6.350;2022-08-06T01:09:08;14.50;;;5.95;;
64609;SDS011;51019;46.090;6.350;2022-08-06T01:11:36;13.77;;;5.60;;
64609;SDS011;51019;46.090;6.350;2022-08-06T01:14:03;13.32;;;6.22;;
64609;SDS011;51019;46.090;6.350;2022-08-06T01:16:33;13.18;;;4.55;;
64609;SDS011;51019;46.090;6.350;2022-08-06T01:19:16;13.80;;;5.38;;
64609;SDS011;51019;46.090;6.350;2022-08-06T01:22:05;13.63;;;4.85;;
64609;SDS011;51019;46.090;6.350;2022-08-06T01:24:54;13.65;;;5.53;;
64609;SDS011;51019;46.090;6.350;2022-08-06T01:32:54;13.75;;;5.97;;
64609;SDS011;51019;46.090;6.350;2022-08-06T01:35:29;14.15;;;5.97;;
64609;SDS011;51019;46.090;6.350;2022-08-06T01:38:03;14.77;;;5.45;;
64609;SDS011;51019;46.090;6.350;2022-08-06T01:40:34;14.07;;;5.40;;
64609;SDS011;51019;46.090;6.350;2022-08-06T01:43:05;15.50;;;5.90;;
64609;SDS011;51019;46.090;6.350;2022-08-06T01:45:35;16.48;;;6.18;;
64609;SDS011;51019;46.090;6.350;2022-08-06T01:48:06;18.42;;;6.90;;
64609;SDS011;51019;46.090;6.350;2022-08-06T01:50:41;24.88;;;7.18;;
64609;SDS011;51019;46.090;6.350;2022-08-06T01:53:11;26.42;;;6.82;;
64609;SDS011;51019;46.090;6.350;2022-08-06T01:55:42;16.83;;;6.70;;
64609;SDS011;51019;46.090;6.350;2022-08-06T01:58:16;16.00;;;6.72;;
64609;SDS011;51019;46.090;6.350;2022-08-06T02:00:46;16.67;;;7.78;;
64609;SDS011;51019;46.090;6.350;2022-08-06T02:03:19;16.25;;;6.40;;
64609;SDS011;51019;46.090;6.350;2022-08-06T02:05:50;25.38;;;5.85;;
64609;SDS011;51019;46.090;6.350;2022-08-06T02:08:20;18.70;;;6.35;;
64609;SDS011;51019;46.090;6.350;2022-08-06T02:10:51;17.67;;;6.70;;
64609;SDS011;51019;46.090;6.350;2022-08-06T02:13:22;14.10;;;6.30;;
64609;SDS011;51019;46.090;6.350;2022-08-06T02:15:51;13.07;;;5.70;;
64609;SDS011;51019;46.090;6.350;2022-08-06T02:18:20;14.02;;;6.28;;
64609;SDS011;51019;46.090;6.350;2022-08-06T02:20:50;12.90;;;5.43;;
64609;SDS011;51019;46.090;6.350;2022-08-06T02:23:21;25.92;;;7.07;;
64609;SDS011;51019;46.090;6.350;2022-08-06T02:25:51;21.20;;;7.55;;
64609;SDS011;51019;46.090;6.350;2022-08-06T02:28:26;14.73;;;7.15;;
64609;SDS011;51019;46.090;6.350;2022-08-06T02:30:56;15.93;;;7.05;;
64609;SDS011;51019;46.090;6.350;2022-08-06T02:33:24;16.05;;;7.25;;
64609;SDS011;51019;46.090;6.350;2022-08-06T02:35:54;14.73;;;6.60;;
64609;SDS011;51019;46.090;6.350;2022-08-06T02:38:25;17.85;;;6.45;;
64609;SDS011;51019;46.090;6.350;2022-08-06T02:40:59;13.13;;;5.70;;
64609;SDS011;51019;46.090;6.350;2022-08-06T02:43:32;13.60;;;6.43;;
64609;SDS011;51019;46.090;6.350;2022-08-06T02:46:03;13.43;;;6.63;;
64609;SDS011;51019;46.090;6.350;2022-08-06T02:48:39;14.70;;;6.97;;
64609;SDS011;51019;46.090;6.350;2022-08-06T02:51:11;13.05;;;5.85;;
64609;SDS011;51019;46.090;6.350;2022-08-06T02:53:46;13.30;;;6.82;;
64609;SDS011;51019;46.090;6.350;2022-08-06T02:56:23;12.60;;;5.93;;
64609;SDS011;51019;46.090;6.350;2022-08-06T02:58:55;14.85;;;6.40;;
64609;SDS011;51019;46.090;6.350;2022-08-06T03:01:26;16.80;;;7.10;;
64609;SDS011;51019;46.090;6.350;2022-08-06T03:04:00;12.35;;;5.50;;
64609;SDS011;51019;46.090;6.350;2022-08-06T03:06:30;13.45;;;5.88;;
64609;SDS011;51019;46.090;6.350;2022-08-06T03:09:01;13.05;;;5.63;;
64609;SDS011;51019;46.090;6.350;2022-08-06T03:11:31;13.57;;;5.70;;
64609;SDS011;51019;46.090;6.350;2022-08-06T03:14:04;13.90;;;5.07;;
64609;SDS011;51019;46.090;6.350;2022-08-06T03:16:35;12.43;;;5.10;;
64609;SDS011;51019;46.090;6.350;2022-08-06T03:19:04;14.27;;;5.78;;
64609;SDS011;51019;46.090;6.350;2022-08-06T03:21:32;12.70;;;5.68;;
64609;SDS011;51019;46.090;6.350;2022-08-06T03:24:01;12.20;;;4.90;;
64609;SDS011;51019;46.090;6.350;2022-08-06T03:26:30;13.32;;;5.38;;
64609;SDS011;51019;46.090;6.350;2022-08-06T03:28:58;13.48;;;5.53;;
64609;SDS011;51019;46.090;6.350;2022-08-06T03:31:29;13.95;;;5.82;;
64609;SDS011;51019;46.090;6.350;2022-08-06T03:33:58;13.05;;;5.43;;
64609;SDS011;51019;46.090;6.350;2022-08-06T03:36:27;16.75;;;5.50;;
64609;SDS011;51019;46.090;6.350;2022-08-06T03:38:56;12.77;;;5.40;;
64609;SDS011;51019;46.090;6.350;2022-08-06T03:41:28;12.82;;;5.20;;
64609;SDS011;51019;46.090;6.350;2022-08-06T03:43:57;13.65;;;5.35;;
64609;SDS011;51019;46.090;6.350;2022-08-06T03:46:32;13.18;;;5.60;;
64609;SDS011;51019;46.090;6.350;2022-08-06T03:49:05;15.23;;;5.10;;
64609;SDS011;51019;46.090;6.350;2022-08-06T03:51:39;13.48;;;4.93;;
64609;SDS011;51019;46.090;6.350;2022-08-06T03:54:11;11.82;;;4.82;;
64609;SDS011;51019;46.090;6.350;2022-08-06T03:56:42;11.52;;;4.63;;
64609;SDS011;51019;46.090;6.350;2022-08-06T03:59:11;12.18;;;5.20;;
64609;SDS011;51019;46.090;6.350;2022-08-06T04:01:43;13.20;;;5.40;;
64609;SDS011;51019;46.090;6.350;2022-08-06T04:04:15;13.03;;;5.60;;
64609;SDS011;51019;46.090;6.350;2022-08-06T04:06:43;14.20;;;5.35;;
64609;SDS011;51019;46.090;6.350;2022-08-06T04:09:11;14.75;;;5.80;;
64609;SDS011;51019;46.090;6.350;2022-08-06T04:11:41;12.27;;;5.20;;
64609;SDS011;51019;46.090;6.350;2022-08-06T04:14:09;12.13;;;5.35;;
64609;SDS011;51019;46.090;6.350;2022-08-06T04:16:38;14.75;;;5.40;;
64609;SDS011;51019;46.090;6.350;2022-08-06T04:19:09;13.82;;;5.30;;
64609;SDS011;51019;46.090;6.350;2022-08-06T04:21:38;14.10;;;4.93;;
64609;SDS011;51019;46.090;6.350;2022-08-06T04:24:06;12.05;;;4.88;;
64609;SDS011;51019;46.090;6.350;2022-08-06T04:26:33;12.15;;;4.97;;
64609;SDS011;51019;46.090;6.350;2022-08-06T04:29:02;12.00;;;5.47;;
64609;SDS011;51019;46.090;6.350;2022-08-06T04:31:32;11.25;;;4.70;;
64609;SDS011;51019;46.090;6.350;2022-08-06T04:34:01;12.05;;;5.15;;
64609;SDS011;51019;46.090;6.350;2022-08-06T04:36:31;13.98;;;5.28;;
64609;SDS011;51019;46.090;6.350;2022-08-06T04:39:00;13.00;;;5.15;;
64609;SDS011;51019;46.090;6.350;2022-08-06T04:41:27;12.05;;;4.90;;
64609;SDS011;51019;46.090;6.350;2022-08-06T04:43:55;13.13;;;4.95;;
64609;SDS011;51019;46.090;6.350;2022-08-06T04:46:23;13.07;;;4.53;;
64609;SDS011;51019;46.090;6.350;2022-08-06T04:48:51;11.88;;;4.82;;
64609;SDS011;51019;46.090;6.350;2022-08-06T04:51:18;11.18;;;4.57;;
64609;SDS011;51019;46.090;6.350;2022-08-06T04:53:53;16.65;;;4.88;;
64609;SDS011;51019;46.090;6.350;2022-08-06T04:56:20;14.63;;;4.50;;
64609;SDS011;51019;46.090;6.350;2022-08-06T04:58:48;10.95;;;4.50;;
64609;SDS011;51019;46.090;6.350;2022-08-06T05:01:21;11.52;;;4.65;;
64609;SDS011;51019;46.090;6.350;2022-08-06T05:03:48;12.73;;;4.30;;
64609;SDS011;51019;46.090;6.350;2022-08-06T05:06:18;12.05;;;4.32;;
64609;SDS011;51019;46.090;6.350;2022-08-06T05:08:50;15.40;;;4.60;;
64609;SDS011;51019;46.090;6.350;2022-08-06T05:11:23;11.30;;;4.00;;
64609;SDS011;51019;46.090;6.350;2022-08-06T05:13:54;11.50;;;4.60;;
64609;SDS011;51019;46.090;6.350;2022-08-06T05:16:24;11.32;;;4.68;;
64609;SDS011;51019;46.090;6.350;2022-08-06T05:18:55;11.77;;;4.35;;
64609;SDS011;51019;46.090;6.350;2022-08-06T05:21:27;11.95;;;4.93;;
64609;SDS011;51019;46.090;6.350;2022-08-06T05:23:58;12.93;;;5.43;;
64609;SDS011;51019;46.090;6.350;2022-08-06T05:26:27;12.65;;;4.97;;
64609;SDS011;51019;46.090;6.350;2022-08-06T05:28:55;12.25;;;5.07;;
64609;SDS011;51019;46.090;6.350;2022-08-06T05:31:29;14.77;;;5.25;;
64609;SDS011;51019;46.090;6.350;2022-08-06T05:33:57;11.88;;;4.82;;
64609;SDS011;51019;46.090;6.350;2022-08-06T05:36:24;12.35;;;4.97;;
64609;SDS011;51019;46.090;6.350;2022-08-06T05:38:51;12.23;;;5.28;;
64609;SDS011;51019;46.090;6.350;2022-08-06T05:41:20;10.88;;;4.45;;
64609;SDS011;51019;46.090;6.350;2022-08-06T05:43:47;11.07;;;4.40;;
64609;SDS011;51019;46.090;6.350;2022-08-06T05:46:15;12.82;;;5.00;;
64609;SDS011;51019;46.090;6.350;2022-08-06T05:48:45;13.07;;;5.60;;
64609;SDS011;51019;46.090;6.350;2022-08-06T05:51:19;12.15;;;5.15;;
64609;SDS011;51019;46.090;6.350;2022-08-06T05:53:53;12.38;;;5.13;;
64609;SDS011;51019;46.090;6.350;2022-08-06T05:56:29;12.63;;;5.20;;
64609;SDS011;51019;46.090;6.350;2022-08-06T05:59:01;12.07;;;5.07;;
64609;SDS011;51019;46.090;6.350;2022-08-06T06:01:31;13.13;;;6.25;;
64609;SDS011;51019;46.090;6.350;2022-08-06T06:04:01;14.63;;;5.60;;
64609;SDS011;51019;46.090;6.350;2022-08-06T06:06:29;12.15;;;5.65;;
64609;SDS011;51019;46.090;6.350;2022-08-06T06:08:57;12.32;;;5.00;;
64609;SDS011;51019;46.090;6.350;2022-08-06T06:11:24;13.60;;;5.25;;
64609;SDS011;51019;46.090;6.350;2022-08-06T06:13:55;14.93;;;5.47;;
64609;SDS011;51019;46.090;6.350;2022-08-06T06:16:23;16.27;;;5.38;;
64609;SDS011;51019;46.090;6.350;2022-08-06T06:19:05;17.15;;;5.53;;
64609;SDS011;51019;46.090;6.350;2022-08-06T06:21:43;13.38;;;5.85;;
64609;SDS011;51019;46.090;6.350;2022-08-06T06:24:20;16.13;;;5.03;;
64609;SDS011;51019;46.090;6.350;2022-08-06T06:26:53;12.20;;;4.80;;
64609;SDS011;51019;46.090;6.350;2022-08-06T06:29:35;12.77;;;5.30;;
64609;SDS011;51019;46.090;6.350;2022-08-06T06:32:08;13.90;;;4.95;;
64609;SDS011;51019;46.090;6.350;2022-08-06T06:34:47;12.18;;;4.55;;
64609;SDS011;51019;46.090;6.350;2022-08-06T06:37:26;13.18;;;5.15;;
64609;SDS011;51019;46.090;6.350;2022-08-06T06:40:05;11.20;;;4.50;;
64609;SDS011;51019;46.090;6.350;2022-08-06T06:42:42;13.27;;;4.80;;
64609;SDS011;51019;46.090;6.350;2022-08-06T06:45:18;12.65;;;4.88;;
64609;SDS011;51019;46.090;6.350;2022-08-06T06:47:52;11.73;;;4.70;;
64609;SDS011;51019;46.090;6.350;2022-08-06T06:50:27;12.30;;;4.13;;
64609;SDS011;51019;46.090;6.350;2022-08-06T06:52:56;13.77;;;4.63;;
64609;SDS011;51019;46.090;6.350;2022-08-06T06:55:28;14.00;;;4.78;;
64609;SDS011;51019;46.090;6.350;2022-08-06T06:58:00;11.98;;;4.25;;
64609;SDS011;51019;46.090;6.350;2022-08-06T07:00:34;12.27;;;4.28;;
64609;SDS011;51019;46.090;6.350;2022-08-06T07:03:04;13.68;;;4.28;;
64609;SDS011;51019;46.090;6.350;2022-08-06T07:05:34;12.18;;;4.68;;
64609;SDS011;51019;46.090;6.350;2022-08-06T07:08:04;12.50;;;4.10;;
64609;SDS011;51019;46.090;6.350;2022-08-06T07:10:33;14.88;;;4.07;;
64609;SDS011;51019;46.090;6.350;2022-08-06T07:13:02;11.65;;;4.75;;
64609;SDS011;51019;46.090;6.350;2022-08-06T07:15:32;12.38;;;4.57;;
64609;SDS011;51019;46.090;6.350;2022-08-06T07:18:01;12.95;;;3.80;;
64609;SDS011;51019;46.090;6.350;2022-08-06T07:20:30;11.65;;;4.38;;
64609;SDS011;51019;46.090;6.350;2022-08-06T07:22:58;11.70;;;4.18;;
64609;SDS011;51019;46.090;6.350;2022-08-06T07:25:27;12.43;;;4.45;;
64609;SDS011;51019;46.090;6.350;2022-08-06T07:27:55;11.82;;;4.43;;
64609;SDS011;51019;46.090;6.350;2022-08-06T07:30:22;14.68;;;4.47;;
64609;SDS011;51019;46.090;6.350;2022-08-06T07:32:51;13.15;;;4.40;;
64609;SDS011;51019;46.090;6.350;2022-08-06T07:35:19;10.80;;;4.00;;
64609;SDS011;51019;46.090;6.350;2022-08-06T07:37:49;12.85;;;5.47;;
64609;SDS011;51019;46.090;6.350;2022-08-06T07:40:22;11.63;;;4.25;;
64609;SDS011;51019;46.090;6.350;2022-08-06T07:42:52;13.27;;;4.20;;
64609;SDS011;51019;46.090;6.350;2022-08-06T07:45:23;13.27;;;4.25;;
64609;SDS011;51019;46.090;6.350;2022-08-06T07:47:55;12.00;;;4.80;;
64609;SDS011;51019;46.090;6.350;2022-08-06T07:50:25;10.95;;;4.03;;
64609;SDS011;51019;46.090;6.350;2022-08-06T07:52:54;12.25;;;4.60;;
64609;SDS011;51019;46.090;6.350;2022-08-06T07:55:22;14.77;;;4.20;;
64609;SDS011;51019;46.090;6.350;2022-08-06T07:57:51;11.98;;;4.43;;
64609;SDS011;51019;46.090;6.350;2022-08-06T08:00:20;10.63;;;4.00;;
64609;SDS011;51019;46.090;6.350;2022-08-06T08:02:48;10.73;;;4.20;;
64609;SDS011;51019;46.090;6.350;2022-08-06T08:05:32;17.45;;;4.85;;
64609;SDS011;51019;46.090;6.350;2022-08-06T08:08:17;12.15;;;4.38;;
64609;SDS011;51019;46.090;6.350;2022-08-06T08:10:45;13.50;;;4.85;;
64609;SDS011;51019;46.090;6.350;2022-08-06T08:13:14;10.93;;;4.32;;
64609;SDS011;51019;46.090;6.350;2022-08-06T08:15:44;13.15;;;4.43;;
64609;SDS011;51019;46.090;6.350;2022-08-06T08:18:12;15.05;;;4.45;;
64609;SDS011;51019;46.090;6.350;2022-08-06T08:20:43;12.30;;;4.53;;
64609;SDS011;51019;46.090;6.350;2022-08-06T08:23:12;11.77;;;4.53;;
64609;SDS011;51019;46.090;6.350;2022-08-06T08:25:41;11.60;;;5.10;;
64609;SDS011;51019;46.090;6.350;2022-08-06T08:28:09;11.90;;;5.22;;
64609;SDS011;51019;46.090;6.350;2022-08-06T08:30:37;11.80;;;4.53;;
64609;SDS011;51019;46.090;6.350;2022-08-06T08:33:05;14.45;;;5.45;;
64609;SDS011;51019;46.090;6.350;2022-08-06T08:35:33;13.25;;;5.45;;
64609;SDS011;51019;46.090;6.350;2022-08-06T08:38:01;14.30;;;5.50;;
64609;SDS011;51019;46.090;6.350;2022-08-06T08:40:28;12.95;;;5.30;;
64609;SDS011;51019;46.090;6.350;2022-08-06T08:42:58;12.45;;;5.47;;
64609;SDS011;51019;46.090;6.350;2022-08-06T08:45:28;12.50;;;5.10;;
64609;SDS011;51019;46.090;6.350;2022-08-06T08:47:57;18.05;;;5.45;;
64609;SDS011;51019;46.090;6.350;2022-08-06T08:50:28;12.82;;;5.35;;
64609;SDS011;51019;46.090;6.350;2022-08-06T08:52:58;11.93;;;4.78;;
64609;SDS011;51019;46.090;6.350;2022-08-06T08:55:31;13.48;;;5.47;;
64609;SDS011;51019;46.090;6.350;2022-08-06T09:00:28;16.98;;;5.63;;
64609;SDS011;51019;46.090;6.350;2022-08-06T09:02:57;14.77;;;5.10;;
64609;SDS011;51019;46.090;6.350;2022-08-06T09:05:27;14.25;;;5.70;;
64609;SDS011;51019;46.090;6.350;2022-08-06T09:07:56;14.90;;;6.85;;
64609;SDS011;51019;46.090;6.350;2022-08-06T09:10:25;13.75;;;5.70;;
64609;SDS011;51019;46.090;6.350;2022-08-06T09:12:55;13.45;;;5.70;;
64609;SDS011;51019;46.090;6.350;2022-08-06T09:15:22;12.77;;;5.55;;
64609;SDS011;51019;46.090;6.350;2022-08-06T09:17:49;14.20;;;5.35;;
64609;SDS011;51019;46.090;6.350;2022-08-06T09:20:17;14.65;;;5.35;;
64609;SDS011;51019;46.090;6.350;2022-08-06T09:22:44;13.45;;;5.38;;
64609;SDS011;51019;46.090;6.350;2022-08-06T09:25:34;13.17;;;5.27;;
64609;SDS011;51019;46.090;6.350;2022-08-06T09:28:04;12.90;;;5.50;;
64609;SDS011;51019;46.090;6.350;2022-08-06T09:30:36;12.13;;;4.97;;
64609;SDS011;51019;46.090;6.350;2022-08-06T09:33:14;14.68;;;5.25;;
64609;SDS011;51019;46.090;6.350;2022-08-06T09:35:41;14.38;;;4.93;;
64609;SDS011;51019;46.090;6.350;2022-08-06T09:38:11;11.30;;;4.43;;
64609;SDS011;51019;46.090;6.350;2022-08-06T09:40:40;11.27;;;4.30;;
64609;SDS011;51019;46.090;6.350;2022-08-06T09:43:09;19.63;;;8.77;;
64609;SDS011;51019;46.090;6.350;2022-08-06T09:45:52;14.23;;;4.78;;
64609;SDS011;51019;46.090;6.350;2022-08-06T09:48:19;14.75;;;5.60;;
64609;SDS011;51019;46.090;6.350;2022-08-06T09:50:48;12.60;;;4.63;;
64609;SDS011;51019;46.090;6.350;2022-08-06T09:53:15;10.75;;;3.90;;
64609;SDS011;51019;46.090;6.350;2022-08-06T09:55:43;10.82;;;4.28;;
64609;SDS011;51019;46.090;6.350;2022-08-06T09:58:12;13.35;;;4.57;;
64609;SDS011;51019;46.090;6.350;2022-08-06T10:00:40;12.65;;;4.35;;
64609;SDS011;51019;46.090;6.350;2022-08-06T10:03:07;11.77;;;4.68;;
64609;SDS011;51019;46.090;6.350;2022-08-06T10:05:36;13.05;;;5.80;;
64609;SDS011;51019;46.090;6.350;2022-08-06T10:08:04;11.27;;;4.10;;
64609;SDS011;51019;46.090;6.350;2022-08-06T10:10:43;10.88;;;3.88;;
64609;SDS011;51019;46.090;6.350;2022-08-06T10:13:14;12.20;;;4.63;;
64609;SDS011;51019;46.090;6.350;2022-08-06T10:15:45;11.55;;;4.68;;
64609;SDS011;51019;46.090;6.350;2022-08-06T10:18:32;13.82;;;5.13;;
64609;SDS011;51019;46.090;6.350;2022-08-06T10:21:04;11.20;;;4.70;;
64609;SDS011;51019;46.090;6.350;2022-08-06T10:23:34;12.82;;;4.97;;
64609;SDS011;51019;46.090;6.350;2022-08-06T10:26:03;11.75;;;4.45;;
64609;SDS011;51019;46.090;6.350;2022-08-06T10:28:34;11.55;;;4.60;;
64609;SDS011;51019;46.090;6.350;2022-08-06T10:31:06;11.57;;;4.32;;
64609;SDS011;51019;46.090;6.350;2022-08-06T10:33:36;13.52;;;4.05;;
64609;SDS011;51019;46.090;6.350;2022-08-06T10:36:08;11.15;;;4.22;;
64609;SDS011;51019;46.090;6.350;2022-08-06T10:38:38;12.25;;;4.53;;
64609;SDS011;51019;46.090;6.350;2022-08-06T10:41:09;12.02;;;4.30;;
64609;SDS011;51019;46.090;6.350;2022-08-06T10:43:39;12.52;;;4.25;;
64609;SDS011;51019;46.090;6.350;2022-08-06T10:46:08;11.10;;;3.95;;
64609;SDS011;51019;46.090;6.350;2022-08-06T10:48:38;11.10;;;4.30;;
64609;SDS011;51019;46.090;6.350;2022-08-06T10:51:07;11.65;;;4.45;;
64609;SDS011;51019;46.090;6.350;2022-08-06T10:53:36;11.07;;;3.97;;
64609;SDS011;51019;46.090;6.350;2022-08-06T10:56:05;11.30;;;4.22;;
64609;SDS011;51019;46.090;6.350;2022-08-06T10:58:34;13.27;;;4.40;;
64609;SDS011;51019;46.090;6.350;2022-08-06T11:01:04;9.73;;;3.78;;
64609;SDS011;51019;46.090;6.350;2022-08-06T11:03:41;10.52;;;3.97;;
64609;SDS011;51019;46.090;6.350;2022-08-06T11:06:33;10.70;;;4.05;;
64609;SDS011;51019;46.090;6.350;2022-08-06T11:09:15;10.30;;;3.80;;
64609;SDS011;51019;46.090;6.350;2022-08-06T11:12:04;10.70;;;4.13;;
64609;SDS011;51019;46.090;6.350;2022-08-06T11:14:44;12.05;;;4.13;;
64609;SDS011;51019;46.090;6.350;2022-08-06T11:17:15;10.70;;;4.07;;
64609;SDS011;51019;46.090;6.350;2022-08-06T11:19:43;10.32;;;3.90;;
64609;SDS011;51019;46.090;6.350;2022-08-06T11:25:05;11.55;;;4.13;;
64609;SDS011;51019;46.090;6.350;2022-08-06T11:27:47;12.18;;;4.25;;
64609;SDS011;51019;46.090;6.350;2022-08-06T11:30:16;10.30;;;3.88;;
64609;SDS011;51019;46.090;6.350;2022-08-06T11:32:47;10.88;;;3.78;;
64609;SDS011;51019;46.090;6.350;2022-08-06T11:38:09;11.27;;;4.60;;
64609;SDS011;51019;46.090;6.350;2022-08-06T11:40:53;12.45;;;4.00;;
64609;SDS011;51019;46.090;6.350;2022-08-06T11:46:19;11.63;;;3.65;;
64609;SDS011;51019;46.090;6.350;2022-08-06T11:51:50;10.32;;;3.80;;
64609;SDS011;51019;46.090;6.350;2022-08-06T11:54:19;10.60;;;4.00;;
64609;SDS011;51019;46.090;6.350;2022-08-06T12:00:02;10.70;;;3.70;;
64609;SDS011;51019;46.090;6.350;2022-08-06T12:08:24;12.30;;;4.07;;
64609;SDS011;51019;46.090;6.350;2022-08-06T12:13:53;10.95;;;4.15;;
64609;SDS011;51019;46.090;6.350;2022-08-06T12:19:12;11.40;;;4.90;;
64609;SDS011;51019;46.090;6.350;2022-08-06T12:21:43;12.60;;;4.32;;
64609;SDS011;51019;46.090;6.350;2022-08-06T12:24:10;10.98;;;4.32;;
64609;SDS011;51019;46.090;6.350;2022-08-06T12:26:38;10.68;;;4.15;;
64609;SDS011;51019;46.090;6.350;2022-08-06T12:29:06;12.52;;;4.22;;
64609;SDS011;51019;46.090;6.350;2022-08-06T12:31:35;10.63;;;4.60;;
64609;SDS011;51019;46.090;6.350;2022-08-06T12:34:04;13.13;;;4.55;;
64609;SDS011;51019;46.090;6.350;2022-08-06T12:36:34;10.95;;;4.15;;
64609;SDS011;51019;46.090;6.350;2022-08-06T12:39:06;11.48;;;3.92;;
64609;SDS011;51019;46.090;6.350;2022-08-06T12:41:40;12.38;;;4.13;;
64609;SDS011;51019;46.090;6.350;2022-08-06T12:44:11;12.18;;;4.18;;
64609;SDS011;51019;46.090;6.350;2022-08-06T12:46:40;10.88;;;4.07;;
64609;SDS011;51019;46.090;6.350;2022-08-06T12:49:07;11.10;;;4.03;;
64609;SDS011;51019;46.090;6.350;2022-08-06T12:51:35;12.38;;;4.38;;
64609;SDS011;51019;46.090;6.350;2022-08-06T12:54:04;12.13;;;3.90;;
64609;SDS011;51019;46.090;6.350;2022-08-06T12:56:37;11.77;;;4.13;;
64609;SDS011;51019;46.090;6.350;2022-08-06T12:59:07;13.02;;;4.65;;
64609;SDS011;51019;46.090;6.350;2022-08-06T13:01:37;13.68;;;3.72;;
64609;SDS011;51019;46.090;6.350;2022-08-06T13:04:06;11.05;;;4.28;;
64609;SDS011;51019;46.090;6.350;2022-08-06T13:06:37;10.07;;;3.67;;
64609;SDS011;51019;46.090;6.350;2022-08-06T13:09:08;12.48;;;4.00;;
64609;SDS011;51019;46.090;6.350;2022-08-06T13:11:35;10.10;;;3.72;;
64609;SDS011;51019;46.090;6.350;2022-08-06T13:14:07;10.65;;;3.63;;
64609;SDS011;51019;46.090;6.350;2022-08-06T13:16:37;12.43;;;4.15;;
64609;SDS011;51019;46.090;6.350;2022-08-06T13:19:06;10.32;;;3.83;;
64609;SDS011;51019;46.090;6.350;2022-08-06T13:21:35;10.00;;;3.58;;
64609;SDS011;51019;46.090;6.350;2022-08-06T13:24:04;9.80;;;3.40;;
64609;SDS011;51019;46.090;6.350;2022-08-06T13:26:46;10.05;;;4.00;;
64609;SDS011;51019;46.090;6.350;2022-08-06T13:29:15;10.32;;;4.00;;
64609;SDS011;51019;46.090;6.350;2022-08-06T13:31:45;12.85;;;4.18;;
64609;SDS011;51019;46.090;6.350;2022-08-06T13:34:14;10.55;;;4.28;;
64609;SDS011;51019;46.090;6.350;2022-08-06T13:36:44;11.20;;;3.70;;
64609;SDS011;51019;46.090;6.350;2022-08-06T13:39:22;12.68;;;4.13;;
64609;SDS011;51019;46.090;6.350;2022-08-06T13:42:00;11.25;;;3.70;;
64609;SDS011;51019;46.090;6.350;2022-08-06T13:44:32;10.38;;;3.97;;
64609;SDS011;51019;46.090;6.350;2022-08-06T13:47:03;9.25;;;3.40;;
64609;SDS011;51019;46.090;6.350;2022-08-06T13:49:30;10.45;;;3.88;;
64609;SDS011;51019;46.090;6.350;2022-08-06T13:51:59;10.90;;;3.90;;
64609;SDS011;51019;46.090;6.350;2022-08-06T13:54:28;11.43;;;4.13;;
64609;SDS011;51019;46.090;6.350;2022-08-06T13:56:55;10.93;;;3.92;;
64609;SDS011;51019;46.090;6.350;2022-08-06T13:59:24;11.80;;;3.80;;
64609;SDS011;51019;46.090;6.350;2022-08-06T14:01:53;9.85;;;3.63;;
64609;SDS011;51019;46.090;6.350;2022-08-06T14:04:21;9.90;;;3.92;;
64609;SDS011;51019;46.090;6.350;2022-08-06T14:06:49;10.10;;;3.78;;
64609;SDS011;51019;46.090;6.350;2022-08-06T14:09:19;10.90;;;3.90;;
64609;SDS011;51019;46.090;6.350;2022-08-06T14:11:50;10.93;;;3.80;;
64609;SDS011;51019;46.090;6.350;2022-08-06T14:14:18;11.20;;;3.67;;
64609;SDS011;51019;46.090;6.350;2022-08-06T14:16:46;10.50;;;4.40;;
64609;SDS011;51019;46.090;6.350;2022-08-06T14:19:14;11.05;;;3.75;;
64609;SDS011;51019;46.090;6.350;2022-08-06T14:21:42;12.73;;;4.72;;
64609;SDS011;51019;46.090;6.350;2022-08-06T14:24:10;10.45;;;3.85;;
64609;SDS011;51019;46.090;6.350;2022-08-06T14:26:37;10.23;;;3.80;;
64609;SDS011;51019;46.090;6.350;2022-08-06T14:29:06;11.38;;;4.05;;
64609;SDS011;51019;46.090;6.350;2022-08-06T14:31:34;13.52;;;3.75;;
64609;SDS011;51019;46.090;6.350;2022-08-06T14:34:04;11.95;;;3.55;;
64609;SDS011;51019;46.090;6.350;2022-08-06T14:36:31;10.88;;;3.67;;
64609;SDS011;51019;46.090;6.350;2022-08-06T14:38:59;9.68;;;3.60;;
64609;SDS011;51019;46.090;6.350;2022-08-06T14:41:28;10.57;;;3.38;;
64609;SDS011;51019;46.090;6.350;2022-08-06T14:44:13;10.10;;;3.63;;
64609;SDS011;51019;46.090;6.350;2022-08-06T14:46:57;11.43;;;3.97;;
64609;SDS011;51019;46.090;6.350;2022-08-06T14:49:25;10.88;;;4.03;;
64609;SDS011;51019;46.090;6.350;2022-08-06T14:51:52;9.77;;;4.03;;
64609;SDS011;51019;46.090;6.350;2022-08-06T14:54:19;11.35;;;3.88;;
64609;SDS011;51019;46.090;6.350;2022-08-06T14:56:47;10.23;;;4.25;;
64609;SDS011;51019;46.090;6.350;2022-08-06T14:59:16;10.77;;;3.67;;
64609;SDS011;51019;46.090;6.350;2022-08-06T15:01:43;10.25;;;3.78;;
64609;SDS011;51019;46.090;6.350;2022-08-06T15:04:11;10.20;;;3.65;;
64609;SDS011;51019;46.090;6.350;2022-08-06T15:06:38;12.52;;;3.88;;
64609;SDS011;51019;46.090;6.350;2022-08-06T15:09:06;11.25;;;3.90;;
64609;SDS011;51019;46.090;6.350;2022-08-06T15:11:33;12.38;;;3.95;;
64609;SDS011;51019;46.090;6.350;2022-08-06T15:14:00;11.00;;;3.92;;
64609;SDS011;51019;46.090;6.350;2022-08-06T15:16:29;10.48;;;3.80;;
64609;SDS011;51019;46.090;6.350;2022-08-06T15:18:56;11.50;;;4.03;;
64609;SDS011;51019;46.090;6.350;2022-08-06T15:21:24;10.35;;;3.92;;
64609;SDS011;51019;46.090;6.350;2022-08-06T15:23:54;11.77;;;4.10;;
64609;SDS011;51019;46.090;6.350;2022-08-06T15:26:21;11.00;;;4.00;;
64609;SDS011;51019;46.090;6.350;2022-08-06T15:28:50;12.10;;;4.05;;
64609;SDS011;51019;46.090;6.350;2022-08-06T15:31:17;11.32;;;3.92;;